sensor_id;sensor_type;location;lat;lon;timestamp;temperature;humidity
11501;DHT22;5807;51.606;7.624;2022-10-31T00:00:14;12.10;99.90
11501;DHT22;5807;51.606;7.624;2022-10-31T00:02:41;12.10;99.90
11501;DHT22;5807;51.606;7.624;2022-10-31T00:05:09;12.10;99.90
11501;DHT22;5807;51.606;7.624;2022-10-31T00:07:36;11.50;99.90
11501;DHT22;5807;51.606;7.624;2022-10-31T00:10:04;12.30;99.90
11501;DHT22;5807;51.606;7.624;2022-10-31T00:12:31;12.40;99.90
11501;DHT22;5807;51.606;7.624;2022-10-31T00:14:58;13.90;99.90
11501;DHT22;5807;51.606;7.624;2022-10-31T00:17:25;12.40;99.90
11501;DHT22;5807;51.606;7.624;2022-10-31T00:19:52;12.90;99.90
11501;DHT22;5807;51.606;7.624;2022-10-31T00:24:47;12.50;99.90
11501;DHT22;5807;51.606;7.624;2022-10-31T00:27:14;12.60;99.90
11501;DHT22;5807;51.606;7.624;2022-10-31T00:29:41;13.00;99.90
11501;DHT22;5807;51.606;7.624;2022-10-31T00:34:35;12.70;99.90
11501;DHT22;5807;51.606;7.624;2022-10-31T00:41:58;12.90;99.90
11501;DHT22;5807;51.606;7.624;2022-10-31T00:44:25;12.90;99.90
11501;DHT22;5807;51.606;7.624;2022-10-31T00:46:51;12.90;99.90
11501;DHT22;5807;51.606;7.624;2022-10-31T00:49:18;13.00;99.90
11501;DHT22;5807;51.606;7.624;2022-10-31T00:51:45;13.20;99.90
11501;DHT22;5807;51.606;7.624;2022-10-31T00:54:12;13.00;99.90
11501;DHT22;5807;51.606;7.624;2022-10-31T00:56:41;14.70;99.90
11501;DHT22;5807;51.606;7.624;2022-10-31T01:01:35;13.10;99.90
11501;DHT22;5807;51.606;7.624;2022-10-31T01:04:01;13.10;99.90
11501;DHT22;5807;51.606;7.624;2022-10-31T01:08:56;13.10;99.90
11501;DHT22;5807;51.606;7.624;2022-10-31T01:11:23;13.10;99.90
11501;DHT22;5807;51.606;7.624;2022-10-31T01:13:53;13.30;99.90
11501;DHT22;5807;51.606;7.624;2022-10-31T01:16:21;13.10;99.90
11501;DHT22;5807;51.606;7.624;2022-10-31T01:18:49;13.10;99.90
11501;DHT22;5807;51.606;7.624;2022-10-31T01:21:18;13.10;99.90
11501;DHT22;5807;51.606;7.624;2022-10-31T01:23:45;13.10;99.90
11501;DHT22;5807;51.606;7.624;2022-10-31T01:26:13;13.10;99.90
11501;DHT22;5807;51.606;7.624;2022-10-31T01:28:44;14.30;99.90
11501;DHT22;5807;51.606;7.624;2022-10-31T01:31:13;13.50;99.90
11501;DHT22;5807;51.606;7.624;2022-10-31T01:33:41;13.10;99.90
11501;DHT22;5807;51.606;7.624;2022-10-31T01:36:12;13.10;99.90
11501;DHT22;5807;51.606;7.624;2022-10-31T01:38:39;12.60;99.90
11501;DHT22;5807;51.606;7.624;2022-10-31T01:41:06;13.20;99.90
11501;DHT22;5807;51.606;7.624;2022-10-31T01:43:45;13.20;99.90
11501;DHT22;5807;51.606;7.624;2022-10-31T01:46:15;13.20;99.90
11501;DHT22;5807;51.606;7.624;2022-10-31T01:51:14;13.20;99.90
11501;DHT22;5807;51.606;7.624;2022-10-31T01:53:43;14.30;99.90
11501;DHT22;5807;51.606;7.624;2022-10-31T01:56:11;14.30;99.90
11501;DHT22;5807;51.606;7.624;2022-10-31T01:58:39;13.70;99.90
11501;DHT22;5807;51.606;7.624;2022-10-31T02:01:06;13.20;99.90
11501;DHT22;5807;51.606;7.624;2022-10-31T02:06:03;13.30;99.90
11501;DHT22;5807;51.606;7.624;2022-10-31T02:08:33;13.30;99.90
11501;DHT22;5807;51.606;7.624;2022-10-31T02:11:01;13.60;99.90
11501;DHT22;5807;51.606;7.624;2022-10-31T02:13:29;13.70;99.90
11501;DHT22;5807;51.606;7.624;2022-10-31T02:15:57;14.20;99.90
11501;DHT22;5807;51.606;7.624;2022-10-31T02:18:27;13.60;99.90
11501;DHT22;5807;51.606;7.624;2022-10-31T02:21:00;13.60;99.90
11501;DHT22;5807;51.606;7.624;2022-10-31T02:23:45;13.70;99.90
11501;DHT22;5807;51.606;7.624;2022-10-31T02:26:52;13.70;99.90
11501;DHT22;5807;51.606;7.624;2022-10-31T02:32:43;13.60;99.90
11501;DHT22;5807;51.606;7.624;2022-10-31T02:35:23;12.80;99.90
11501;DHT22;5807;51.606;7.624;2022-10-31T02:37:56;13.50;99.90
11501;DHT22;5807;51.606;7.624;2022-10-31T02:40:26;13.30;99.90
11501;DHT22;5807;51.606;7.624;2022-10-31T02:42:59;13.70;99.90
11501;DHT22;5807;51.606;7.624;2022-10-31T02:45:32;12.80;99.90
11501;DHT22;5807;51.606;7.624;2022-10-31T02:48:09;13.00;99.90
11501;DHT22;5807;51.606;7.624;2022-10-31T02:50:41;13.40;99.90
11501;DHT22;5807;51.606;7.624;2022-10-31T02:53:08;14.60;99.90
11501;DHT22;5807;51.606;7.624;2022-10-31T02:55:59;12.40;99.90
11501;DHT22;5807;51.606;7.624;2022-10-31T02:58:30;13.80;99.90
11501;DHT22;5807;51.606;7.624;2022-10-31T03:04:22;12.30;99.90
11501;DHT22;5807;51.606;7.624;2022-10-31T03:06:59;12.90;99.90
11501;DHT22;5807;51.606;7.624;2022-10-31T03:09:33;12.50;99.90
11501;DHT22;5807;51.606;7.624;2022-10-31T03:12:07;12.10;99.90
11501;DHT22;5807;51.606;7.624;2022-10-31T03:14:38;12.10;99.90
11501;DHT22;5807;51.606;7.624;2022-10-31T03:17:13;12.40;99.90
11501;DHT22;5807;51.606;7.624;2022-10-31T03:19:43;12.70;99.90
11501;DHT22;5807;51.606;7.624;2022-10-31T03:22:16;12.20;99.90
11501;DHT22;5807;51.606;7.624;2022-10-31T03:24:45;13.10;99.90
11501;DHT22;5807;51.606;7.624;2022-10-31T03:27:15;12.80;99.90
11501;DHT22;5807;51.606;7.624;2022-10-31T03:29:44;13.60;99.90
11501;DHT22;5807;51.606;7.624;2022-10-31T03:32:15;12.90;99.90
11501;DHT22;5807;51.606;7.624;2022-10-31T03:34:45;12.20;99.90
11501;DHT22;5807;51.606;7.624;2022-10-31T03:37:16;12.20;99.90
11501;DHT22;5807;51.606;7.624;2022-10-31T03:39:45;13.10;99.90
11501;DHT22;5807;51.606;7.624;2022-10-31T03:42:15;12.60;99.90
11501;DHT22;5807;51.606;7.624;2022-10-31T03:44:46;13.30;99.90
11501;DHT22;5807;51.606;7.624;2022-10-31T03:47:13;12.70;99.90
11501;DHT22;5807;51.606;7.624;2022-10-31T03:49:40;13.10;99.90
11501;DHT22;5807;51.606;7.624;2022-10-31T03:52:15;12.50;99.90
11501;DHT22;5807;51.606;7.624;2022-10-31T03:54:46;12.60;99.90
11501;DHT22;5807;51.606;7.624;2022-10-31T03:57:17;12.40;99.90
11501;DHT22;5807;51.606;7.624;2022-10-31T03:59:50;13.30;99.90
11501;DHT22;5807;51.606;7.624;2022-10-31T04:02:22;13.50;99.90
11501;DHT22;5807;51.606;7.624;2022-10-31T04:04:52;13.00;99.90
11501;DHT22;5807;51.606;7.624;2022-10-31T04:07:21;12.40;99.90
11501;DHT22;5807;51.606;7.624;2022-10-31T04:09:50;12.20;99.90
11501;DHT22;5807;51.606;7.624;2022-10-31T04:12:18;13.30;99.90
11501;DHT22;5807;51.606;7.624;2022-10-31T04:14:47;13.70;99.90
11501;DHT22;5807;51.606;7.624;2022-10-31T04:17:17;12.40;99.90
11501;DHT22;5807;51.606;7.624;2022-10-31T04:19:45;12.50;99.90
11501;DHT22;5807;51.606;7.624;2022-10-31T04:22:12;11.80;99.90
11501;DHT22;5807;51.606;7.624;2022-10-31T04:24:41;11.80;99.90
11501;DHT22;5807;51.606;7.624;2022-10-31T04:27:08;12.30;99.90
11501;DHT22;5807;51.606;7.624;2022-10-31T04:29:35;12.00;99.90
11501;DHT22;5807;51.606;7.624;2022-10-31T04:32:01;12.00;99.90
11501;DHT22;5807;51.606;7.624;2022-10-31T04:34:28;11.50;99.90
11501;DHT22;5807;51.606;7.624;2022-10-31T04:36:55;12.50;99.90
11501;DHT22;5807;51.606;7.624;2022-10-31T04:39:22;12.60;99.90
11501;DHT22;5807;51.606;7.624;2022-10-31T04:41:50;11.90;99.90
11501;DHT22;5807;51.606;7.624;2022-10-31T04:44:17;13.60;99.90
11501;DHT22;5807;51.606;7.624;2022-10-31T04:46:43;11.60;99.90
11501;DHT22;5807;51.606;7.624;2022-10-31T04:49:10;11.60;99.90
11501;DHT22;5807;51.606;7.624;2022-10-31T04:51:37;12.20;99.90
11501;DHT22;5807;51.606;7.624;2022-10-31T04:54:04;11.30;99.90
11501;DHT22;5807;51.606;7.624;2022-10-31T04:56:31;11.30;99.90
11501;DHT22;5807;51.606;7.624;2022-10-31T04:58:59;11.70;99.90
11501;DHT22;5807;51.606;7.624;2022-10-31T05:01:26;11.20;99.90
11501;DHT22;5807;51.606;7.624;2022-10-31T05:03:53;11.20;99.90
11501;DHT22;5807;51.606;7.624;2022-10-31T05:06:20;11.50;99.90
11501;DHT22;5807;51.606;7.624;2022-10-31T05:08:47;10.60;99.90
11501;DHT22;5807;51.606;7.624;2022-10-31T05:11:13;11.10;99.90
11501;DHT22;5807;51.606;7.624;2022-10-31T05:13:40;10.90;99.90
11501;DHT22;5807;51.606;7.624;2022-10-31T05:16:08;11.20;99.90
11501;DHT22;5807;51.606;7.624;2022-10-31T05:18:35;12.40;99.90
11501;DHT22;5807;51.606;7.624;2022-10-31T05:21:02;10.90;99.90
11501;DHT22;5807;51.606;7.624;2022-10-31T05:23:29;11.00;99.90
11501;DHT22;5807;51.606;7.624;2022-10-31T05:25:56;11.60;99.90
11501;DHT22;5807;51.606;7.624;2022-10-31T05:28:23;10.90;99.90
11501;DHT22;5807;51.606;7.624;2022-10-31T05:30:50;10.90;99.90
11501;DHT22;5807;51.606;7.624;2022-10-31T05:33:18;12.20;99.90
11501;DHT22;5807;51.606;7.624;2022-10-31T05:35:45;10.70;99.90
11501;DHT22;5807;51.606;7.624;2022-10-31T05:38:11;9.70;99.90
11501;DHT22;5807;51.606;7.624;2022-10-31T05:40:38;10.30;99.90
11501;DHT22;5807;51.606;7.624;2022-10-31T05:43:05;10.00;99.90
11501;DHT22;5807;51.606;7.624;2022-10-31T05:45:32;10.50;99.90
11501;DHT22;5807;51.606;7.624;2022-10-31T05:48:00;10.60;99.90
11501;DHT22;5807;51.606;7.624;2022-10-31T05:50:30;10.60;99.90
11501;DHT22;5807;51.606;7.624;2022-10-31T05:52:58;10.50;99.90
11501;DHT22;5807;51.606;7.624;2022-10-31T05:55:25;10.60;99.90
11501;DHT22;5807;51.606;7.624;2022-10-31T05:57:53;11.00;99.90
11501;DHT22;5807;51.606;7.624;2022-10-31T06:00:20;10.50;99.90
11501;DHT22;5807;51.606;7.624;2022-10-31T06:02:47;10.10;99.90
11501;DHT22;5807;51.606;7.624;2022-10-31T06:05:15;10.80;99.90
11501;DHT22;5807;51.606;7.624;2022-10-31T06:07:53;10.50;99.90
11501;DHT22;5807;51.606;7.624;2022-10-31T06:10:19;13.40;99.90
11501;DHT22;5807;51.606;7.624;2022-10-31T06:12:46;10.20;99.90
11501;DHT22;5807;51.606;7.624;2022-10-31T06:15:14;10.60;99.90
11501;DHT22;5807;51.606;7.624;2022-10-31T06:17:40;10.70;99.90
11501;DHT22;5807;51.606;7.624;2022-10-31T06:20:08;10.90;99.90
11501;DHT22;5807;51.606;7.624;2022-10-31T06:22:35;10.60;99.90
11501;DHT22;5807;51.606;7.624;2022-10-31T06:25:03;10.00;99.90
11501;DHT22;5807;51.606;7.624;2022-10-31T06:27:30;10.60;99.90
11501;DHT22;5807;51.606;7.624;2022-10-31T06:29:57;11.50;99.90
11501;DHT22;5807;51.606;7.624;2022-10-31T06:32:24;11.30;99.90
11501;DHT22;5807;51.606;7.624;2022-10-31T06:34:51;10.60;99.90
11501;DHT22;5807;51.606;7.624;2022-10-31T06:37:18;10.20;99.90
11501;DHT22;5807;51.606;7.624;2022-10-31T06:39:44;10.70;99.90
11501;DHT22;5807;51.606;7.624;2022-10-31T06:42:14;10.60;99.90
11501;DHT22;5807;51.606;7.624;2022-10-31T06:44:41;11.70;99.90
11501;DHT22;5807;51.606;7.624;2022-10-31T06:47:08;10.80;99.90
11501;DHT22;5807;51.606;7.624;2022-10-31T06:49:35;10.80;99.90
11501;DHT22;5807;51.606;7.624;2022-10-31T06:52:02;11.80;99.90
11501;DHT22;5807;51.606;7.624;2022-10-31T06:54:28;10.90;99.90
11501;DHT22;5807;51.606;7.624;2022-10-31T06:56:55;11.00;99.90
11501;DHT22;5807;51.606;7.624;2022-10-31T06:59:23;11.10;99.90
11501;DHT22;5807;51.606;7.624;2022-10-31T07:01:50;11.20;99.90
11501;DHT22;5807;51.606;7.624;2022-10-31T07:04:17;11.30;99.90
11501;DHT22;5807;51.606;7.624;2022-10-31T07:06:44;11.40;99.90
11501;DHT22;5807;51.606;7.624;2022-10-31T07:09:11;11.50;99.90
11501;DHT22;5807;51.606;7.624;2022-10-31T07:11:38;11.60;99.90
11501;DHT22;5807;51.606;7.624;2022-10-31T07:14:05;11.70;99.90
11501;DHT22;5807;51.606;7.624;2022-10-31T07:17:10;11.70;99.90
11501;DHT22;5807;51.606;7.624;2022-10-31T07:19:36;11.80;99.90
11501;DHT22;5807;51.606;7.624;2022-10-31T07:22:03;11.90;99.90
11501;DHT22;5807;51.606;7.624;2022-10-31T07:24:30;11.90;99.90
11501;DHT22;5807;51.606;7.624;2022-10-31T07:26:57;12.10;99.90
11501;DHT22;5807;51.606;7.624;2022-10-31T07:29:23;13.40;99.90
11501;DHT22;5807;51.606;7.624;2022-10-31T07:31:51;11.50;99.90
11501;DHT22;5807;51.606;7.624;2022-10-31T07:34:19;12.20;99.90
11501;DHT22;5807;51.606;7.624;2022-10-31T07:36:45;12.30;99.90
11501;DHT22;5807;51.606;7.624;2022-10-31T07:39:12;12.30;99.90
11501;DHT22;5807;51.606;7.624;2022-10-31T07:41:39;12.40;99.90
11501;DHT22;5807;51.606;7.624;2022-10-31T07:44:06;12.40;99.90
11501;DHT22;5807;51.606;7.624;2022-10-31T07:46:33;12.50;99.90
11501;DHT22;5807;51.606;7.624;2022-10-31T07:49:00;12.60;99.90
11501;DHT22;5807;51.606;7.624;2022-10-31T07:51:29;12.60;99.90
11501;DHT22;5807;51.606;7.624;2022-10-31T07:53:57;12.20;99.90
11501;DHT22;5807;51.606;7.624;2022-10-31T07:56:23;12.80;99.90
11501;DHT22;5807;51.606;7.624;2022-10-31T07:58:50;12.90;99.90
11501;DHT22;5807;51.606;7.624;2022-10-31T08:01:17;12.90;99.90
11501;DHT22;5807;51.606;7.624;2022-10-31T08:03:44;13.40;99.90
11501;DHT22;5807;51.606;7.624;2022-10-31T08:06:11;12.90;99.90
11501;DHT22;5807;51.606;7.624;2022-10-31T08:08:39;12.70;99.90
11501;DHT22;5807;51.606;7.624;2022-10-31T08:11:05;13.00;99.90
11501;DHT22;5807;51.606;7.624;2022-10-31T08:13:32;13.20;99.90
11501;DHT22;5807;51.606;7.624;2022-10-31T08:15:59;12.60;99.90
11501;DHT22;5807;51.606;7.624;2022-10-31T08:18:29;13.10;99.90
11501;DHT22;5807;51.606;7.624;2022-10-31T08:20:56;13.20;99.90
11501;DHT22;5807;51.606;7.624;2022-10-31T08:23:26;13.20;99.90
11501;DHT22;5807;51.606;7.624;2022-10-31T08:25:54;13.30;99.90
11501;DHT22;5807;51.606;7.624;2022-10-31T08:28:21;13.30;99.90
11501;DHT22;5807;51.606;7.624;2022-10-31T08:30:48;13.10;99.90
11501;DHT22;5807;51.606;7.624;2022-10-31T08:33:16;13.60;99.90
11501;DHT22;5807;51.606;7.624;2022-10-31T08:35:44;13.70;99.90
11501;DHT22;5807;51.606;7.624;2022-10-31T08:38:21;13.80;99.90
11501;DHT22;5807;51.606;7.624;2022-10-31T08:40:48;13.90;99.90
11501;DHT22;5807;51.606;7.624;2022-10-31T08:43:17;14.10;99.90
11501;DHT22;5807;51.606;7.624;2022-10-31T08:45:48;14.20;99.90
11501;DHT22;5807;51.606;7.624;2022-10-31T08:48:16;14.30;99.90
11501;DHT22;5807;51.606;7.624;2022-10-31T08:50:44;14.50;99.90
11501;DHT22;5807;51.606;7.624;2022-10-31T08:53:12;14.60;99.90
11501;DHT22;5807;51.606;7.624;2022-10-31T08:55:40;14.70;99.90
11501;DHT22;5807;51.606;7.624;2022-10-31T08:58:10;14.80;99.90
11501;DHT22;5807;51.606;7.624;2022-10-31T09:00:39;15.10;99.90
11501;DHT22;5807;51.606;7.624;2022-10-31T09:03:08;15.30;99.90
11501;DHT22;5807;51.606;7.624;2022-10-31T09:05:35;15.40;99.90
11501;DHT22;5807;51.606;7.624;2022-10-31T09:08:04;15.50;99.90
11501;DHT22;5807;51.606;7.624;2022-10-31T09:10:32;15.60;99.90
11501;DHT22;5807;51.606;7.624;2022-10-31T09:13:01;15.70;99.90
11501;DHT22;5807;51.606;7.624;2022-10-31T09:15:32;15.80;99.90
11501;DHT22;5807;51.606;7.624;2022-10-31T09:18:00;15.90;99.90
11501;DHT22;5807;51.606;7.624;2022-10-31T09:20:27;15.10;99.90
11501;DHT22;5807;51.606;7.624;2022-10-31T09:22:58;16.40;99.90
11501;DHT22;5807;51.606;7.624;2022-10-31T09:25:25;16.10;99.90
11501;DHT22;5807;51.606;7.624;2022-10-31T09:27:55;16.30;99.90
11501;DHT22;5807;51.606;7.624;2022-10-31T09:30:23;16.20;99.90
11501;DHT22;5807;51.606;7.624;2022-10-31T09:32:55;16.30;99.90
11501;DHT22;5807;51.606;7.624;2022-10-31T09:35:23;16.50;99.90
11501;DHT22;5807;51.606;7.624;2022-10-31T09:37:54;16.40;99.90
11501;DHT22;5807;51.606;7.624;2022-10-31T09:40:21;16.50;99.90
11501;DHT22;5807;51.606;7.624;2022-10-31T09:42:55;16.60;99.90
11501;DHT22;5807;51.606;7.624;2022-10-31T09:45:29;16.50;99.90
11501;DHT22;5807;51.606;7.624;2022-10-31T09:48:35;16.70;99.90
11501;DHT22;5807;51.606;7.624;2022-10-31T09:51:10;16.90;99.90
11501;DHT22;5807;51.606;7.624;2022-10-31T09:53:40;16.90;99.90
11501;DHT22;5807;51.606;7.624;2022-10-31T09:56:11;17.10;99.90
11501;DHT22;5807;51.606;7.624;2022-10-31T09:58:42;15.70;99.90
11501;DHT22;5807;51.606;7.624;2022-10-31T10:01:19;17.60;99.90
11501;DHT22;5807;51.606;7.624;2022-10-31T10:03:56;17.70;99.90
11501;DHT22;5807;51.606;7.624;2022-10-31T10:06:28;17.60;99.90
11501;DHT22;5807;51.606;7.624;2022-10-31T10:11:41;17.50;99.90
11501;DHT22;5807;51.606;7.624;2022-10-31T10:14:30;17.50;99.90
11501;DHT22;5807;51.606;7.624;2022-10-31T10:17:14;17.50;99.90
11501;DHT22;5807;51.606;7.624;2022-10-31T10:19:59;17.60;99.90
11501;DHT22;5807;51.606;7.624;2022-10-31T10:22:38;17.60;99.90
11501;DHT22;5807;51.606;7.624;2022-10-31T10:25:21;17.70;99.90
11501;DHT22;5807;51.606;7.624;2022-10-31T10:27:56;17.60;99.90
11501;DHT22;5807;51.606;7.624;2022-10-31T10:30:33;17.70;99.90
11501;DHT22;5807;51.606;7.624;2022-10-31T10:33:05;17.70;99.90
11501;DHT22;5807;51.606;7.624;2022-10-31T10:35:38;17.70;99.90
11501;DHT22;5807;51.606;7.624;2022-10-31T10:38:17;17.60;99.90
11501;DHT22;5807;51.606;7.624;2022-10-31T10:40:45;17.60;99.90
11501;DHT22;5807;51.606;7.624;2022-10-31T10:43:23;16.60;99.90
11501;DHT22;5807;51.606;7.624;2022-10-31T10:49:17;17.90;99.90
11501;DHT22;5807;51.606;7.624;2022-10-31T10:51:46;18.10;99.90
11501;DHT22;5807;51.606;7.624;2022-10-31T10:54:45;18.30;99.90
11501;DHT22;5807;51.606;7.624;2022-10-31T10:57:21;18.50;99.90
11501;DHT22;5807;51.606;7.624;2022-10-31T10:59:48;18.50;99.90
11501;DHT22;5807;51.606;7.624;2022-10-31T11:02:18;18.60;99.90
11501;DHT22;5807;51.606;7.624;2022-10-31T11:04:48;18.60;99.90
11501;DHT22;5807;51.606;7.624;2022-10-31T11:07:16;18.50;99.90
11501;DHT22;5807;51.606;7.624;2022-10-31T11:09:44;18.40;99.90
11501;DHT22;5807;51.606;7.624;2022-10-31T11:12:19;18.40;99.90
11501;DHT22;5807;51.606;7.624;2022-10-31T11:14:49;18.50;99.90
11501;DHT22;5807;51.606;7.624;2022-10-31T11:17:22;18.60;99.90
11501;DHT22;5807;51.606;7.624;2022-10-31T11:23:03;18.80;99.90
11501;DHT22;5807;51.606;7.624;2022-10-31T11:25:31;19.00;99.90
11501;DHT22;5807;51.606;7.624;2022-10-31T11:27:59;19.30;99.90
11501;DHT22;5807;51.606;7.624;2022-10-31T11:30:26;19.50;99.90
11501;DHT22;5807;51.606;7.624;2022-10-31T11:32:54;19.50;99.90
11501;DHT22;5807;51.606;7.624;2022-10-31T11:35:22;19.50;99.90
11501;DHT22;5807;51.606;7.624;2022-10-31T11:37:52;19.70;99.90
11501;DHT22;5807;51.606;7.624;2022-10-31T11:40:22;19.90;99.90
11501;DHT22;5807;51.606;7.624;2022-10-31T11:42:52;20.10;99.90
11501;DHT22;5807;51.606;7.624;2022-10-31T11:45:29;20.10;99.90
11501;DHT22;5807;51.606;7.624;2022-10-31T11:47:58;20.20;99.90
11501;DHT22;5807;51.606;7.624;2022-10-31T11:50:28;20.10;99.90
11501;DHT22;5807;51.606;7.624;2022-10-31T11:52:57;20.00;99.90
11501;DHT22;5807;51.606;7.624;2022-10-31T11:55:31;19.70;99.90
11501;DHT22;5807;51.606;7.624;2022-10-31T11:58:00;19.30;99.90
11501;DHT22;5807;51.606;7.624;2022-10-31T12:00:28;19.30;99.90
11501;DHT22;5807;51.606;7.624;2022-10-31T12:03:11;19.30;99.90
11501;DHT22;5807;51.606;7.624;2022-10-31T12:05:44;19.40;99.90
11501;DHT22;5807;51.606;7.624;2022-10-31T12:08:13;19.30;99.90
11501;DHT22;5807;51.606;7.624;2022-10-31T12:10:46;19.40;99.90
11501;DHT22;5807;51.606;7.624;2022-10-31T12:13:30;19.40;99.90
11501;DHT22;5807;51.606;7.624;2022-10-31T12:16:03;19.20;99.90
11501;DHT22;5807;51.606;7.624;2022-10-31T12:18:40;19.20;99.90
11501;DHT22;5807;51.606;7.624;2022-10-31T12:21:21;19.10;99.90
11501;DHT22;5807;51.606;7.624;2022-10-31T12:24:00;18.90;99.90
11501;DHT22;5807;51.606;7.624;2022-10-31T12:26:34;18.90;99.90
11501;DHT22;5807;51.606;7.624;2022-10-31T12:29:19;18.90;99.90
11501;DHT22;5807;51.606;7.624;2022-10-31T12:32:05;19.00;99.90
11501;DHT22;5807;51.606;7.624;2022-10-31T12:35:00;19.10;99.90
11501;DHT22;5807;51.606;7.624;2022-10-31T12:37:48;19.10;99.90
11501;DHT22;5807;51.606;7.624;2022-10-31T12:40:33;19.10;99.90
11501;DHT22;5807;51.606;7.624;2022-10-31T12:43:18;19.20;99.90
11501;DHT22;5807;51.606;7.624;2022-10-31T12:45:53;19.20;99.90
11501;DHT22;5807;51.606;7.624;2022-10-31T12:51:27;19.10;99.90
11501;DHT22;5807;51.606;7.624;2022-10-31T12:54:12;18.30;99.90
11501;DHT22;5807;51.606;7.624;2022-10-31T12:56:47;19.10;99.90
11501;DHT22;5807;51.606;7.624;2022-10-31T12:59:23;19.30;99.90
11501;DHT22;5807;51.606;7.624;2022-10-31T13:01:58;19.20;99.90
11501;DHT22;5807;51.606;7.624;2022-10-31T13:04:35;19.40;99.90
11501;DHT22;5807;51.606;7.624;2022-10-31T13:07:13;19.40;99.90
11501;DHT22;5807;51.606;7.624;2022-10-31T13:09:47;19.50;99.90
11501;DHT22;5807;51.606;7.624;2022-10-31T13:12:19;19.50;99.90
11501;DHT22;5807;51.606;7.624;2022-10-31T13:14:49;20.10;99.90
11501;DHT22;5807;51.606;7.624;2022-10-31T13:17:22;19.60;99.90
11501;DHT22;5807;51.606;7.624;2022-10-31T13:20:24;19.60;99.90
11501;DHT22;5807;51.606;7.624;2022-10-31T13:25:40;19.40;99.90
11501;DHT22;5807;51.606;7.624;2022-10-31T13:28:15;19.30;99.90
11501;DHT22;5807;51.606;7.624;2022-10-31T13:30:48;19.40;99.90
11501;DHT22;5807;51.606;7.624;2022-10-31T13:33:20;19.30;99.90
11501;DHT22;5807;51.606;7.624;2022-10-31T13:35:52;19.30;99.90
11501;DHT22;5807;51.606;7.624;2022-10-31T13:38:24;19.20;99.90
11501;DHT22;5807;51.606;7.624;2022-10-31T13:40:59;19.10;99.90
11501;DHT22;5807;51.606;7.624;2022-10-31T13:43:33;19.10;99.90
11501;DHT22;5807;51.606;7.624;2022-10-31T13:46:22;19.20;99.90
11501;DHT22;5807;51.606;7.624;2022-10-31T13:48:51;19.20;99.90
11501;DHT22;5807;51.606;7.624;2022-10-31T13:51:25;19.20;99.90
11501;DHT22;5807;51.606;7.624;2022-10-31T13:53:58;19.20;99.90
11501;DHT22;5807;51.606;7.624;2022-10-31T13:56:30;19.30;99.90
11501;DHT22;5807;51.606;7.624;2022-10-31T13:59:15;19.20;99.90
11501;DHT22;5807;51.606;7.624;2022-10-31T14:01:53;19.20;99.90
11501;DHT22;5807;51.606;7.624;2022-10-31T14:04:24;19.30;99.90
11501;DHT22;5807;51.606;7.624;2022-10-31T14:06:57;19.30;99.90
11501;DHT22;5807;51.606;7.624;2022-10-31T14:09:29;19.50;99.90
11501;DHT22;5807;51.606;7.624;2022-10-31T14:11:58;19.20;99.90
11501;DHT22;5807;51.606;7.624;2022-10-31T14:14:32;19.10;99.90
11501;DHT22;5807;51.606;7.624;2022-10-31T14:16:59;19.30;99.90
11501;DHT22;5807;51.606;7.624;2022-10-31T14:19:28;19.00;99.90
11501;DHT22;5807;51.606;7.624;2022-10-31T14:21:55;19.00;99.90
11501;DHT22;5807;51.606;7.624;2022-10-31T14:24:34;19.10;99.90
11501;DHT22;5807;51.606;7.624;2022-10-31T14:29:46;19.10;99.90
11501;DHT22;5807;51.606;7.624;2022-10-31T14:32:21;19.90;99.90
11501;DHT22;5807;51.606;7.624;2022-10-31T14:34:54;19.00;99.90
11501;DHT22;5807;51.606;7.624;2022-10-31T14:37:46;19.10;99.90
11501;DHT22;5807;51.606;7.624;2022-10-31T14:40:24;19.00;99.90
11501;DHT22;5807;51.606;7.624;2022-10-31T14:45:49;19.30;99.90
11501;DHT22;5807;51.606;7.624;2022-10-31T14:48:43;18.80;99.90
11501;DHT22;5807;51.606;7.624;2022-10-31T14:51:18;19.00;99.90
11501;DHT22;5807;51.606;7.624;2022-10-31T14:53:48;18.90;99.90
11501;DHT22;5807;51.606;7.624;2022-10-31T14:56:20;18.90;99.90
11501;DHT22;5807;51.606;7.624;2022-10-31T14:58:48;18.90;99.90
11501;DHT22;5807;51.606;7.624;2022-10-31T15:01:21;18.80;99.90
11501;DHT22;5807;51.606;7.624;2022-10-31T15:03:49;18.70;99.90
11501;DHT22;5807;51.606;7.624;2022-10-31T15:06:19;19.20;99.90
11501;DHT22;5807;51.606;7.624;2022-10-31T15:08:48;18.70;99.90
11501;DHT22;5807;51.606;7.624;2022-10-31T15:11:17;18.60;99.90
11501;DHT22;5807;51.606;7.624;2022-10-31T15:13:47;18.50;99.90
11501;DHT22;5807;51.606;7.624;2022-10-31T15:16:16;19.20;99.90
11501;DHT22;5807;51.606;7.624;2022-10-31T15:18:51;18.50;99.90
11501;DHT22;5807;51.606;7.624;2022-10-31T15:21:21;18.40;99.90
11501;DHT22;5807;51.606;7.624;2022-10-31T15:23:50;18.40;99.90
11501;DHT22;5807;51.606;7.624;2022-10-31T15:26:19;18.40;99.90
11501;DHT22;5807;51.606;7.624;2022-10-31T15:28:57;18.50;99.90
11501;DHT22;5807;51.606;7.624;2022-10-31T15:31:25;18.30;99.90
11501;DHT22;5807;51.606;7.624;2022-10-31T15:33:53;18.20;99.90
11501;DHT22;5807;51.606;7.624;2022-10-31T15:36:25;18.60;99.90
11501;DHT22;5807;51.606;7.624;2022-10-31T15:38:52;18.10;99.90
11501;DHT22;5807;51.606;7.624;2022-10-31T15:41:29;18.10;99.90
11501;DHT22;5807;51.606;7.624;2022-10-31T15:44:01;18.10;99.90
11501;DHT22;5807;51.606;7.624;2022-10-31T15:46:29;18.00;99.90
11501;DHT22;5807;51.606;7.624;2022-10-31T15:48:56;18.00;99.90
11501;DHT22;5807;51.606;7.624;2022-10-31T15:51:30;18.90;99.90
11501;DHT22;5807;51.606;7.624;2022-10-31T15:53:58;17.80;99.90
11501;DHT22;5807;51.606;7.624;2022-10-31T15:56:28;17.70;99.90
11501;DHT22;5807;51.606;7.624;2022-10-31T15:58:58;17.70;99.90
11501;DHT22;5807;51.606;7.624;2022-10-31T16:01:27;17.60;99.90
11501;DHT22;5807;51.606;7.624;2022-10-31T16:04:05;17.70;99.90
11501;DHT22;5807;51.606;7.624;2022-10-31T16:06:57;17.50;99.90
11501;DHT22;5807;51.606;7.624;2022-10-31T16:09:25;17.70;99.90
11501;DHT22;5807;51.606;7.624;2022-10-31T16:11:51;17.40;99.90
11501;DHT22;5807;51.606;7.624;2022-10-31T16:14:22;17.30;99.90
11501;DHT22;5807;51.606;7.624;2022-10-31T16:16:51;18.00;99.90
11501;DHT22;5807;51.606;7.624;2022-10-31T16:19:21;17.30;99.90
11501;DHT22;5807;51.606;7.624;2022-10-31T16:21:52;17.20;99.90
11501;DHT22;5807;51.606;7.624;2022-10-31T16:24:23;17.30;99.90
11501;DHT22;5807;51.606;7.624;2022-10-31T16:26:53;18.40;99.90
11501;DHT22;5807;51.606;7.624;2022-10-31T16:29:31;17.10;99.90
11501;DHT22;5807;51.606;7.624;2022-10-31T16:31:59;17.10;99.90
11501;DHT22;5807;51.606;7.624;2022-10-31T16:34:26;17.00;99.90
11501;DHT22;5807;51.606;7.624;2022-10-31T16:36:54;17.30;99.90
11501;DHT22;5807;51.606;7.624;2022-10-31T16:39:21;16.90;99.90
11501;DHT22;5807;51.606;7.624;2022-10-31T16:41:50;16.90;99.90
11501;DHT22;5807;51.606;7.624;2022-10-31T16:44:19;17.60;99.90
11501;DHT22;5807;51.606;7.624;2022-10-31T16:46:46;16.80;99.90
11501;DHT22;5807;51.606;7.624;2022-10-31T16:49:13;16.80;99.90
11501;DHT22;5807;51.606;7.624;2022-10-31T16:51:42;16.80;99.90
11501;DHT22;5807;51.606;7.624;2022-10-31T16:54:10;17.10;99.90